^^
Saratoga-Weather Station Historical Data
Daily Summary for February 27, 2021 Units:  English    Metric   Both
Daily Weekly Monthly Yearly Custom
  High: Low: Average:
Temperature: 65.8 °F 52 °F 60.1 °F
Dew Point: 54 °F 49.6 °F 52.3 °F
Humidity: 92% 62% 76%
Wind Speed: 10.1mph 0mph 2.8mph
Wind Gust: 14mph - -
Wind- - West
Pressure: 30.1 in 30 in -
Precipitation: 0 in    
Historical Graphs
 
 
Tabular Data for February 27, 2021
Time Temperature Dew Point Pressure Wind Wind Speed Wind Gust Humidity Rainfall Rate (Hourly) solar
00:02 58.5 °F 53.1 °F 30 in Calm   1 mph 82% 0 in 0 W/m2
00:07 58.3 °F 53.1 °F 30 in Calm   3 mph 83% 0 in 0 W/m2
00:12 57.9 °F 52.7 °F 30 in West 2 mph 3 mph 83% 0 in 0 W/m2
00:17 57.7 °F 52.9 °F 30 in West 2 mph 3 mph 84% 0 in 0 W/m2
00:22 57.6 °F 52.7 °F 30 in West 0.9 mph 3 mph 84% 0 in 0 W/m2
00:27 57.6 °F 53.1 °F 30 in WNW 2 mph 4 mph 85% 0 in 0 W/m2
00:32 57.4 °F 52.9 °F 30 in West 2 mph 4 mph 85% 0 in 0 W/m2
00:37 57.2 °F 52.7 °F 30 in West 2 mph 4 mph 85% 0 in 0 W/m2
00:42 57 °F 52.5 °F 30 in West 0.9 mph 3 mph 85% 0 in 0 W/m2
00:47 57 °F 52.9 °F 30 in West 2.9 mph 6 mph 86% 0 in 0 W/m2
00:52 57 °F 52.9 °F 30 in WNW 2 mph 4 mph 86% 0 in 0 W/m2
00:57 57.2 °F 53.1 °F 30 in West 2.9 mph 4 mph 86% 0 in 0 W/m2
01:02 57.4 °F 53.2 °F 30 in WNW 2 mph 6 mph 86% 0 in 0 W/m2
01:07 57.4 °F 53.2 °F 30 in West 0.9 mph 4 mph 86% 0 in 0 W/m2
01:12 57.6 °F 53.4 °F 30 in West 2 mph 6 mph 86% 0 in 0 W/m2
01:17 57.7 °F 53.2 °F 30 in WNW 4 mph 4 mph 85% 0 in 0 W/m2
01:22 57.7 °F 53.2 °F 30 in West 2 mph 4 mph 85% 0 in 0 W/m2
01:27 57.7 °F 53.2 °F 30 in WNW 2 mph 6 mph 85% 0 in 0 W/m2
01:32 57.7 °F 53.2 °F 30 in WSW 2.9 mph 5 mph 85% 0 in 0 W/m2
01:37 57.7 °F 53.2 °F 30 in WSW 2.9 mph 4 mph 85% 0 in 0 W/m2
01:42 57.7 °F 53.2 °F 30 in West 2 mph 4 mph 85% 0 in 0 W/m2
01:47 57.7 °F 53.2 °F 30 in West 2.9 mph 6 mph 85% 0 in 0 W/m2
01:52 57.7 °F 53.2 °F 30 in WSW 2.9 mph 4 mph 85% 0 in 0 W/m2
01:57 57.9 °F 53.4 °F 30 in WSW 2.9 mph 4 mph 85% 0 in 0 W/m2
02:02 57.9 °F 53.4 °F 30 in West 2 mph 4 mph 85% 0 in 0 W/m2
02:07 57.9 °F 53.4 °F 30 in WSW 4 mph 4 mph 85% 0 in 0 W/m2
02:12 57.9 °F 53.4 °F 30 in NW 2 mph 4 mph 85% 0 in 0 W/m2
02:17 57.9 °F 53.4 °F 30 in WNW 0.9 mph 6 mph 85% 0 in 0 W/m2
02:22 58.1 °F 53.6 °F 30 in West 2.9 mph 6 mph 85% 0 in 0 W/m2
02:27 58.1 °F 53.6 °F 30 in WNW 4 mph 6 mph 85% 0 in 0 W/m2
02:32 58.3 °F 53.8 °F 30 in WNW 2 mph 5 mph 85% 0 in 0 W/m2
02:37 58.3 °F 53.8 °F 30 in NW 2 mph 3 mph 85% 0 in 0 W/m2
02:42 58.1 °F 54 °F 30 in WNW 2 mph 4 mph 86% 0 in 0 W/m2
02:47 57.7 °F 53.6 °F 30 in WSW 0.9 mph 3 mph 86% 0 in 0 W/m2
02:52 57.6 °F 53.8 °F 30 in Calm     87% 0 in 0 W/m2
02:57 57.6 °F 53.8 °F 30 in WNW 0.9 mph 3 mph 87% 0 in 0 W/m2
03:02 57.4 °F 53.6 °F 30 in Calm   2 mph 87% 0 in 0 W/m2
03:07 57.4 °F 53.6 °F 30 in West 2 mph 6 mph 87% 0 in 0 W/m2
03:12 57.6 °F 53.8 °F 30 in West 4 mph 4 mph 87% 0 in 0 W/m2
03:17 57.7 °F 53.6 °F 30 in North 2 mph 5 mph 86% 0 in 0 W/m2
03:22 57.9 °F 53.8 °F 30 in North 0.9 mph 2 mph 86% 0 in 0 W/m2
03:27 57.9 °F 53.8 °F 30 in WSW 0.9 mph 3 mph 86% 0 in 0 W/m2
03:32 57.9 °F 53.8 °F 30 in West 4 mph 4 mph 86% 0 in 0 W/m2
03:38 57.9 °F 53.4 °F 30 in West 2.9 mph 4 mph 85% 0 in 0 W/m2
03:43 57.9 °F 53.4 °F 30 in NW 0.9 mph 6 mph 85% 0 in 0 W/m2
03:48 57.9 °F 53.4 °F 30 in North 0.9 mph 6 mph 85% 0 in 0 W/m2
03:53 57.9 °F 53.1 °F 30 in NNW 4 mph 8 mph 84% 0 in 0 W/m2
03:58 57.9 °F 53.1 °F 30 in West 6 mph 7 mph 84% 0 in 0 W/m2
04:03 57.7 °F 52.9 °F 30 in WNW 2 mph 8 mph 84% 0 in 0 W/m2
04:08 57.6 °F 52.7 °F 30 in NNW 0.9 mph 5 mph 84% 0 in 0 W/m2
04:13 57.4 °F 52.5 °F 30 in West 4 mph 8 mph 84% 0 in 0 W/m2
04:18 57.4 °F 52.9 °F 30 in WSW 0.9 mph 3 mph 85% 0 in 0 W/m2
04:23 57.2 °F 52.7 °F 30 in NNW 2 mph 4 mph 85% 0 in 0 W/m2
04:28 57 °F 52.5 °F 30 in WNW 0.9 mph 4 mph 85% 0 in 0 W/m2
04:33 57 °F 52.5 °F 30 in NE 2 mph 6 mph 85% 0 in 0 W/m2
04:38 56.8 °F 52.3 °F 30 in NNW 0.9 mph 3 mph 85% 0 in 0 W/m2
04:43 56.7 °F 52.2 °F 30 in WNW 0.9 mph 3 mph 85% 0 in 0 W/m2
04:48 56.3 °F 51.8 °F 30 in NW 0.9 mph 2 mph 85% 0 in 0 W/m2
04:53 55.9 °F 51.8 °F 30 in Calm   1 mph 86% 0 in 0 W/m2
04:58 55.8 °F 51.6 °F 30 in Calm   1 mph 86% 0 in 0 W/m2
05:03 55.6 °F 51.4 °F 30 in WNW 0.9 mph 2 mph 86% 0 in 0 W/m2
05:08 55.2 °F 51.4 °F 30 in WNW 0.9 mph 2 mph 87% 0 in 0 W/m2
05:13 54.9 °F 51.1 °F 30 in WNW 0.9 mph 2 mph 87% 0 in 0 W/m2
05:18 55 °F 51.6 °F 30 in WNW 0.9 mph 3 mph 88% 0 in 0 W/m2
05:23 55 °F 51.3 °F 30 in NNW 2 mph 2 mph 87% 0 in 0 W/m2
05:28 55 °F 51.3 °F 30 in NW 2 mph 2 mph 87% 0 in 0 W/m2
05:33 55 °F 51.3 °F 30 in NW 0.9 mph 1 mph 87% 0 in 0 W/m2
05:38 54.9 °F 51.1 °F 30 in Calm   1 mph 87% 0 in 0 W/m2
05:43 54.7 °F 50.9 °F 30 in Calm   1 mph 87% 0 in 0 W/m2
05:48 54.1 °F 50.4 °F 30 in Calm     87% 0 in 0 W/m2
05:53 54 °F 50.2 °F 30 in Calm   1 mph 87% 0 in 0 W/m2
05:58 53.6 °F 50.2 °F 30 in Calm   1 mph 88% 0 in 0 W/m2
06:03 53.4 °F 50.2 °F 30 in Calm     89% 0 in 0 W/m2
06:08 53.2 °F 50 °F 30 in Calm     89% 0 in 0 W/m2
06:13 53.1 °F 49.8 °F 30 in Calm     89% 0 in 0 W/m2
06:18 53.1 °F 50.2 °F 30 in Calm   1 mph 90% 0 in 0 W/m2
06:23 52.9 °F 50 °F 30 in Calm   1 mph 90% 0 in 0 W/m2
06:28 53.1 °F 50.5 °F 30 in North 2 mph 2 mph 91% 0 in 0 W/m2
06:33 53.1 °F 50.5 °F 30 in Calm     91% 0 in 0 W/m2
06:38 53.1 °F 50.5 °F 30 in Calm     91% 0 in 0 W/m2
06:43 53.1 °F 50.2 °F 30 in Calm     90% 0 in 0 W/m2
06:48 52.9 °F 50 °F 30 in Calm   2 mph 90% 0 in 5 W/m2
06:53 52.5 °F 49.6 °F 30 in Calm     90% 0 in 5 W/m2
06:58 52.5 °F 50 °F 30 in Calm   2 mph 91% 0 in 9 W/m2
07:03 52.3 °F 49.8 °F 30 in Calm     91% 0 in 11 W/m2
07:08 52.2 °F 49.6 °F 30 in Calm     91% 0 in 12 W/m2
07:13 52.2 °F 49.6 °F 30 in Calm     91% 0 in 16 W/m2
07:18 52.2 °F 49.8 °F 30 in WNW 0.9 mph 1 mph 92% 0 in 18 W/m2
07:23 52 °F 49.6 °F 30 in WNW 0.9 mph 1 mph 92% 0 in 19 W/m2
07:28 52 °F 49.6 °F 30 in Calm   1 mph 92% 0 in 18 W/m2
07:33 52.2 °F 49.8 °F 30 in Calm     92% 0 in 19 W/m2
07:38 52.2 °F 49.8 °F 30 in Calm   1 mph 92% 0 in 30 W/m2
07:43 52.3 °F 50 °F 30 in WSW 0.9 mph 4 mph 92% 0 in 35 W/m2
07:48 52.7 °F 50.4 °F 30 in Calm     92% 0 in 32 W/m2
07:53 53.1 °F 50.7 °F 30 in WSW 0.9 mph 4 mph 92% 0 in 33 W/m2
07:58 53.2 °F 50.7 °F 30 in WSW 0.9 mph 2 mph 91% 0 in 33 W/m2
08:03 53.4 °F 50.9 °F 30 in Calm   1 mph 91% 0 in 35 W/m2
08:08 53.4 °F 50.5 °F 30 in Calm     90% 0 in 35 W/m2
08:13 53.8 °F 50.9 °F 30 in WSW 2 mph 2 mph 90% 0 in 39 W/m2
08:18 54 °F 50.7 °F 30 in West 2.9 mph 3 mph 89% 0 in 42 W/m2
08:23 54.3 °F 50.9 °F 30 in West 0.9 mph 2 mph 88% 0 in 69 W/m2
08:28 54.9 °F 51.1 °F 30 in West 0.9 mph 3 mph 87% 0 in 146 W/m2
08:33 55 °F 50.9 °F 30 in West 0.9 mph 2 mph 86% 0 in 77 W/m2
08:38 55.4 °F 51.3 °F 30 in Calm   3 mph 86% 0 in 93 W/m2
08:43 55.8 °F 51.6 °F 30 in Calm   1 mph 86% 0 in 105 W/m2
08:48 55.9 °F 51.4 °F 30 in Calm   2 mph 85% 0 in 132 W/m2
08:53 56.3 °F 51.4 °F 30 in Calm     84% 0 in 148 W/m2
08:58 56.7 °F 51.6 °F 30 in Calm   3 mph 83% 0 in 165 W/m2
09:03 56.8 °F 51.8 °F 30 in Calm   2 mph 83% 0 in 185 W/m2
09:08 57 °F 51.6 °F 30 in West 2.9 mph 8 mph 82% 0 in 199 W/m2
09:13 57.4 °F 52 °F 30 in West 2.9 mph 4 mph 82% 0 in 278 W/m2
09:18 57.7 °F 52.3 °F 30 in NNW 0.9 mph 8 mph 82% 0 in 250 W/m2
09:23 58.3 °F 52.5 °F 30 in NW 4 mph 9 mph 81% 0 in 237 W/m2
09:28 58.6 °F 52.5 °F 30 in WNW 2.9 mph 4 mph 80% 0 in 397 W/m2
09:33 58.6 °F 52.2 °F 30 in NNW 2 mph 6 mph 79% 0 in 206 W/m2
09:38 58.6 °F 52.2 °F 30 in WNW 2 mph 6 mph 79% 0 in 190 W/m2
09:43 58.5 °F 51.6 °F 30 in NNW 0.9 mph 10 mph 78% 0 in 148 W/m2
09:48 58.3 °F 51.4 °F 30 in WNW 2 mph 8 mph 78% 0 in 457 W/m2
09:53 58.8 °F 52 °F 30 in WNW 2 mph 4 mph 78% 0 in 265 W/m2
09:58 59.2 °F 52 °F 30 in NW 2 mph 6 mph 77% 0 in 188 W/m2
10:03 59.4 °F 51.4 °F 30 in Calm   2 mph 75% 0 in 322 W/m2
10:08 59.7 °F 51.4 °F 30 in Calm   2 mph 74% 0 in 464 W/m2
10:13 60.3 °F 51.6 °F 30 in North 0.9 mph 7 mph 73% 0 in 327 W/m2
10:18 60.4 °F 51.4 °F 30 in WNW 4 mph 5 mph 72% 0 in 376 W/m2
10:23 60.6 °F 52.3 °F 30 in Calm   1 mph 74% 0 in 596 W/m2
10:28 61 °F 52 °F 30 in NW 2 mph 6 mph 72% 0 in 250 W/m2
10:33 61 °F 52 °F 30 in WNW 2 mph 7 mph 72% 0 in 227 W/m2
10:38 61 °F 52 °F 30 in South 2 mph 3 mph 72% 0 in 353 W/m2
10:43 61.3 °F 52.7 °F 30 in NNW 2 mph 3 mph 73% 0 in 628 W/m2
10:48 61.9 °F 53.1 °F 30 in East 2 mph 4 mph 73% 0 in 643 W/m2
10:53 62.2 °F 53.1 °F 30 in NNW 4 mph 12 mph 72% 0 in 680 W/m2
10:58 62.1 °F 52.9 °F 30 in SW 2 mph 7 mph 72% 0 in 178 W/m2
11:03 61.5 °F 52 °F 30.1 in NNW 6 mph 12 mph 71% 0 in 149 W/m2
11:08 61.2 °F 52 °F 30.1 in North 2 mph 7 mph 72% 0 in 327 W/m2
11:13 61.5 °F 52.3 °F 30 in ENE 2.9 mph 5 mph 72% 0 in 724 W/m2
11:18 62.2 °F 52.7 °F 30 in ENE 4 mph 13 mph 71% 0 in 752 W/m2
11:23 62.8 °F 52.5 °F 30.1 in North 6.9 mph 9 mph 69% 0 in 105 W/m2
11:28 62.2 °F 51.6 °F 30 in WNW 2 mph 12 mph 68% 0 in 123 W/m2
11:33 62.4 °F 52.2 °F 30.1 in West 4 mph 5 mph 69% 0 in 181 W/m2
11:38 62.8 °F 51.6 °F 30.1 in West 2.9 mph 9 mph 67% 0 in 773 W/m2
11:43 63 °F 52.2 °F 30 in WNW 6.9 mph 9 mph 68% 0 in 766 W/m2
11:48 63.1 °F 52 °F 30 in WNW 4 mph 10 mph 67% 0 in 761 W/m2
11:53 63.7 °F 51.6 °F 30 in WNW 8.1 mph 10 mph 65% 0 in 842 W/m2
11:58 63.9 °F 51.4 °F 30 in West 6 mph 8 mph 64% 0 in 835 W/m2
12:03 63.9 °F 51.8 °F 30 in WNW 4.9 mph 10 mph 65% 0 in 483 W/m2
12:08 64.2 °F 52.2 °F 30 in NNE 2.9 mph 6 mph 65% 0 in 508 W/m2
12:13 64.6 °F 52.2 °F 30 in NE 2.9 mph 4 mph 64% 0 in 432 W/m2
12:19 64.6 °F 52.2 °F 30 in WNW 2.9 mph 4 mph 64% 0 in 350 W/m2
12:24 64.6 °F 51.6 °F 30 in NNE 0.9 mph 4 mph 63% 0 in 422 W/m2
12:29 64.6 °F 52.2 °F 30 in NE 2.9 mph 5 mph 64% 0 in 399 W/m2
12:34 64.6 °F 52.5 °F 30 in NW 2 mph 4 mph 65% 0 in 185 W/m2
12:39 64.2 °F 51.8 °F 30 in WNW 4 mph 6 mph 64% 0 in 195 W/m2
12:44 63.9 °F 51.4 °F 30 in NW 2.9 mph 6 mph 64% 0 in 214 W/m2
12:49 63.9 °F 52.3 °F 30 in North 0.9 mph 2 mph 66% 0 in 229 W/m2
12:54 63.7 °F 50.9 °F 30 in NNW 4 mph 10 mph 63% 0 in 248 W/m2
12:59 63.1 °F 51.3 °F 30 in NW 0.9 mph 6 mph 65% 0 in 236 W/m2
13:04 63.1 °F 51.6 °F 30 in WNW 4 mph 10 mph 66% 0 in 232 W/m2
13:09 63 °F 51.4 °F 30 in WNW 4 mph 8 mph 66% 0 in 297 W/m2
13:14 63.1 °F 51.6 °F 30 in WSW 6.9 mph 8 mph 66% 0 in 366 W/m2
13:19 63.1 °F 51.6 °F 30 in WNW 2 mph 7 mph 66% 0 in 355 W/m2
13:24 63.7 °F 52.2 °F 30 in SE 4 mph 8 mph 66% 0 in 366 W/m2
13:29 64 °F 52 °F 30 in WNW 0.9 mph 5 mph 65% 0 in 387 W/m2
13:34 64 °F 52 °F 30 in NNW 2 mph 4 mph 65% 0 in 364 W/m2
13:39 64.2 °F 52.2 °F 30 in NNW 6 mph 6 mph 65% 0 in 160 W/m2
13:44 64 °F 52 °F 30 in WNW 6.9 mph 9 mph 65% 0 in 183 W/m2
13:49 63.9 °F 51.4 °F 30 in West 8.1 mph 8 mph 64% 0 in 234 W/m2
13:54 63.7 °F 51.3 °F 30 in North 4 mph 8 mph 64% 0 in 295 W/m2
13:59 63.7 °F 51.6 °F 30 in NNE 2 mph 6 mph 65% 0 in 390 W/m2
14:04 64 °F 52 °F 30 in North 2.9 mph 6 mph 65% 0 in 346 W/m2
14:09 64.2 °F 52.7 °F 30 in NE 2.9 mph 7 mph 66% 0 in 287 W/m2
14:14 64.4 °F 53.2 °F 30 in NNW 6 mph 10 mph 67% 0 in 269 W/m2
14:19 64.2 °F 52.7 °F 30 in NNW 0.9 mph 10 mph 66% 0 in 302 W/m2
14:24 63.9 °F 52.3 °F 30 in West 8.1 mph 8 mph 66% 0 in 301 W/m2
14:29 63.9 °F 52.3 °F 30 in West 4 mph 10 mph 66% 0 in 338 W/m2
14:34 63.7 °F 52.2 °F 30 in WNW 2 mph 9 mph 66% 0 in 323 W/m2
14:39 64 °F 52.9 °F 30 in WSW 0.9 mph 2 mph 67% 0 in 415 W/m2
14:44 64.4 °F 52.9 °F 30 in WNW 2 mph 3 mph 66% 0 in 371 W/m2
14:49 64.8 °F 52.7 °F 30 in WNW 2.9 mph 3 mph 65% 0 in 360 W/m2
14:54 64.8 °F 52.7 °F 30 in NNW 2.9 mph 4 mph 65% 0 in 323 W/m2
14:59 65.1 °F 53.1 °F 30 in WSW 2 mph 8 mph 65% 0 in 353 W/m2
15:04 64.9 °F 52.5 °F 30 in West 6.9 mph 7 mph 64% 0 in 299 W/m2
15:09 64.8 °F 52.7 °F 30 in NW 2.9 mph 6 mph 65% 0 in 323 W/m2
15:14 64.8 °F 52.7 °F 30 in WNW 2.9 mph 7 mph 65% 0 in 301 W/m2
15:19 64.8 °F 52.7 °F 30 in West 4 mph 7 mph 65% 0 in 246 W/m2
15:24 64.6 °F 52.5 °F 30 in WNW 2.9 mph 7 mph 65% 0 in 278 W/m2
15:29 64.9 °F 52.9 °F 30 in NW 2.9 mph 5 mph 65% 0 in 977 W/m2
15:34 65.1 °F 52.7 °F 30 in NW 2.9 mph 6 mph 64% 0 in 276 W/m2
15:39 64.9 °F 52.5 °F 30 in NW 2 mph 7 mph 64% 0 in 223 W/m2
15:44 64.8 °F 52.7 °F 30 in NW 6.9 mph 9 mph 65% 0 in 251 W/m2
15:49 64.9 °F 52.5 °F 30 in WNW 2.9 mph 10 mph 64% 0 in 301 W/m2
15:54 64.9 °F 52.5 °F 30 in WNW 2.9 mph 10 mph 64% 0 in 357 W/m2
15:59 65.5 °F 53.4 °F 30 in NW 6 mph 8 mph 65% 0 in 357 W/m2
16:04 65.8 °F 52.9 °F 30 in NW 6 mph 12 mph 63% 0 in 656 W/m2
16:09 65.7 °F 52.7 °F 30 in West 6 mph 11 mph 63% 0 in 355 W/m2
16:14 65.8 °F 53.2 °F 30 in NW 4 mph 7 mph 64% 0 in 197 W/m2
16:19 65.7 °F 53.2 °F 30 in WSW 4 mph 11 mph 64% 0 in 139 W/m2
16:24 65.5 °F 53.4 °F 30 in WNW 2 mph 4 mph 65% 0 in 144 W/m2
16:29 65.5 °F 53.4 °F 30 in West 6 mph 8 mph 65% 0 in 160 W/m2
16:34 65.1 °F 52.7 °F 30 in WNW 8.1 mph 12 mph 64% 0 in 142 W/m2
16:39 64.9 °F 53.2 °F 30 in West 6 mph 8 mph 66% 0 in 206 W/m2
16:44 64.9 °F 53.8 °F 30 in WNW 4.9 mph 11 mph 67% 0 in 299 W/m2
16:49 64.9 °F 52.9 °F 30 in WSW 2 mph 14 mph 65% 0 in 213 W/m2
16:54 64.9 °F 53.2 °F 30 in West 4 mph 7 mph 66% 0 in 260 W/m2
16:59 64.9 °F 52.9 °F 30 in NNW 8.1 mph 14 mph 65% 0 in 281 W/m2
17:04 65.5 °F 53.1 °F 30 in WSW 8.1 mph 10 mph 64% 0 in 283 W/m2
17:09 65.5 °F 52.2 °F 30 in West 10.1 mph 14 mph 62% 0 in 269 W/m2
17:14 65.8 °F 52.9 °F 30 in NW 2 mph 9 mph 63% 0 in 202 W/m2
17:19 65.8 °F 53.2 °F 30 in NW 0.9 mph 10 mph 64% 0 in 141 W/m2
17:24 65.8 °F 53.8 °F 30 in SW 4 mph 9 mph 65% 0 in 128 W/m2
17:29 65.5 °F 53.4 °F 30 in West 4 mph 9 mph 65% 0 in 162 W/m2
17:34 64.9 °F 52.5 °F 30 in West 2.9 mph 10 mph 64% 0 in 169 W/m2
17:39 64.8 °F 52.3 °F 30 in NW 2.9 mph 7 mph 64% 0 in 137 W/m2
17:44 64.6 °F 52.5 °F 30 in WNW 0.9 mph 8 mph 65% 0 in 134 W/m2
17:49 64.6 °F 52.2 °F 30 in WSW 8.9 mph 9 mph 64% 0 in 148 W/m2
17:54 64.4 °F 52.3 °F 30 in West 2 mph 8 mph 65% 0 in 137 W/m2
17:59 64.4 °F 52.3 °F 30 in West 4 mph 9 mph 65% 0 in 158 W/m2
18:04 64.4 °F 52 °F 30 in WSW 4.9 mph 11 mph 64% 0 in 116 W/m2
18:09 64.4 °F 52.3 °F 30 in WNW 2.9 mph 5 mph 65% 0 in 162 W/m2
18:14 64.8 °F 52.7 °F 30 in WNW 4 mph 11 mph 65% 0 in 162 W/m2
18:19 64.9 °F 52.9 °F 30 in West 6.9 mph 7 mph 65% 0 in 100 W/m2
18:24 64.9 °F 52.5 °F 30 in WNW 2 mph 8 mph 64% 0 in 309 W/m2
18:29 65.5 °F 53.1 °F 30 in WNW 2.9 mph 9 mph 64% 0 in 295 W/m2
18:34 65.7 °F 53.2 °F 30 in NW 2 mph 6 mph 64% 0 in 285 W/m2
18:39 65.7 °F 52.7 °F 30 in West 4 mph 11 mph 63% 0 in 269 W/m2
18:44 65.8 °F 53.2 °F 30 in WNW 4.9 mph 7 mph 64% 0 in 267 W/m2
18:49 65.7 °F 52.7 °F 30 in WNW 8.1 mph 8 mph 63% 0 in 90 W/m2
18:55 65.3 °F 52.9 °F 30 in WNW 4 mph 7 mph 64% 0 in 84 W/m2
19:00 64.9 °F 52.5 °F 30 in WNW 6.9 mph 13 mph 64% 0 in 76 W/m2
19:05 64.8 °F 52.7 °F 30 in West 6 mph 10 mph 65% 0 in 63 W/m2
19:10 64.6 °F 52.9 °F 30 in West 2.9 mph 4 mph 66% 0 in 51 W/m2
19:15 64.6 °F 52.9 °F 30 in NW 2.9 mph 7 mph 66% 0 in 35 W/m2
19:20 64.6 °F 53.4 °F 30 in WNW 2.9 mph 5 mph 67% 0 in 25 W/m2
19:30 64.2 °F 53.4 °F 30 in West 2.9 mph 4 mph 68% 0 in 16 W/m2
19:35 64.2 °F 53.4 °F 30 in NW 2 mph 10 mph 68% 0 in 18 W/m2
19:45 64 °F 53.2 °F 30 in West 0.9 mph 6 mph 68% 0 in 9 W/m2
19:50 64 °F 53.2 °F 30 in WNW 4 mph 11 mph 68% 0 in 9 W/m2
19:55 63.9 °F 53.1 °F 30 in NNW 2.9 mph 8 mph 68% 0 in 11 W/m2
20:00 63.9 °F 53.4 °F 30 in SW 6 mph 7 mph 69% 0 in 11 W/m2
20:05 63.7 °F 53.2 °F 30 in West 8.9 mph 9 mph 69% 0 in 11 W/m2
20:10 63.5 °F 53.1 °F 30 in West 10.1 mph 10 mph 69% 0 in 7 W/m2
20:15 63.3 °F 53.1 °F 30 in NW 6 mph 6 mph 69% 0 in 5 W/m2
20:20 63.1 °F 53.2 °F 30 in WNW 10 mph 10 mph 70% 0 in 0 W/m2
20:25 63 °F 53.1 °F 30 in West 6 mph 6 mph 70% 0 in 0 W/m2
20:30 63 °F 53.1 °F 30 in West 8.1 mph 9 mph 70% 0 in 0 W/m2
20:35 62.8 °F 53.2 °F 30 in North 6 mph 7 mph 71% 0 in 0 W/m2
20:40 62.6 °F 53.1 °F 30 in West 4 mph 8 mph 71% 0 in 0 W/m2
20:45 62.6 °F 53.4 °F 30 in West 6.9 mph 7 mph 72% 0 in 0 W/m2
20:50 62.4 °F 53.2 °F 30 in NW 0.9 mph 4 mph 72% 0 in 0 W/m2
20:55 62.2 °F 53.4 °F 30 in North 2.9 mph 3 mph 73% 0 in 0 W/m2
21:00 62.1 °F 53.2 °F 30 in WNW 0.9 mph 4 mph 73% 0 in 0 W/m2
21:05 62.1 °F 52.9 °F 30 in West 4 mph 7 mph 72% 0 in 0 W/m2
21:10 62.1 °F 53.2 °F 30 in WNW 2.9 mph 5 mph 73% 0 in 0 W/m2
21:15 61.7 °F 52.9 °F 30 in NW 9 mph 9 mph 73% 0 in 0 W/m2
21:20 61.5 °F 53.2 °F 30.1 in WNW 4 mph 6 mph 74% 0 in 0 W/m2
21:25 61.3 °F 53.1 °F 30.1 in NW 2 mph 8 mph 74% 0 in 0 W/m2
21:30 61.2 °F 53.2 °F 30.1 in West 4 mph 6 mph 75% 0 in 0 W/m2
21:35 61 °F 53.1 °F 30.1 in WNW 2.9 mph 6 mph 75% 0 in 0 W/m2
21:40 60.6 °F 53.1 °F 30.1 in NW 4.9 mph 7 mph 76% 0 in 0 W/m2
21:45 60.4 °F 53.2 °F 30.1 in West 6.9 mph 8 mph 77% 0 in 0 W/m2
21:50 60.3 °F 53.1 °F 30.1 in WNW 2.9 mph 10 mph 77% 0 in 0 W/m2
21:55 60.1 °F 53.2 °F 30.1 in West 2.9 mph 9 mph 78% 0 in 0 W/m2
22:00 59.9 °F 53.1 °F 30 in West 2 mph 6 mph 78% 0 in 0 W/m2
22:05 59.7 °F 52.9 °F 30.1 in WNW 2 mph 5 mph 78% 0 in 0 W/m2
22:10 59.7 °F 52.9 °F 30.1 in Calm   3 mph 78% 0 in 0 W/m2
22:15 59.7 °F 53.2 °F 30.1 in West 4 mph 4 mph 79% 0 in 0 W/m2
22:20 59.5 °F 53.1 °F 30.1 in WNW 2 mph 7 mph 79% 0 in 0 W/m2
22:25 59.5 °F 53.1 °F 30.1 in WSW 2.9 mph 4 mph 79% 0 in 0 W/m2
22:30 59.5 °F 53.1 °F 30.1 in WSW 2 mph 3 mph 79% 0 in 0 W/m2
22:35 59.5 °F 53.4 °F 30.1 in WNW 2.9 mph 3 mph 80% 0 in 0 W/m2
22:40 59.4 °F 53.2 °F 30.1 in WSW 2 mph 6 mph 80% 0 in 0 W/m2
22:45 59.4 °F 53.2 °F 30.1 in West 2 mph 3 mph 80% 0 in 0 W/m2
22:50 59.2 °F 53.1 °F 30.1 in West 0.9 mph 3 mph 80% 0 in 0 W/m2
22:55 59.2 °F 53.4 °F 30.1 in SW 6 mph 8 mph 81% 0 in 0 W/m2
23:00 59.4 °F 53.6 °F 30.1 in WNW 0.9 mph 3 mph 81% 0 in 0 W/m2
23:05 59.4 °F 53.2 °F 30.1 in WNW 2 mph 8 mph 80% 0 in 0 W/m2
23:10 59.5 °F 53.4 °F 30.1 in NW 2 mph 3 mph 80% 0 in 0 W/m2
23:15 59.5 °F 53.4 °F 30.1 in WSW 2.9 mph 4 mph 80% 0 in 0 W/m2
23:20 59.5 °F 53.4 °F 30.1 in WSW 6 mph 6 mph 80% 0 in 0 W/m2
23:25 59.5 °F 53.4 °F 30.1 in WSW 2.9 mph 6 mph 80% 0 in 0 W/m2
23:30 59.5 °F 53.4 °F 30.1 in WSW 2.9 mph 8 mph 80% 0 in 0 W/m2
23:35 59.5 °F 53.4 °F 30.1 in West 2.9 mph 7 mph 80% 0 in 0 W/m2
23:40 59.5 °F 53.4 °F 30.1 in WSW 6.9 mph 7 mph 80% 0 in 0 W/m2
23:50 59.4 °F 53.6 °F 30.1 in WNW 4 mph 6 mph 81% 0 in 0 W/m2
23:55 59.2 °F 53.4 °F 30.1 in NW 2.9 mph 4 mph 81% 0 in 0 W/m2
Juneau County Weather
Compliments of Weather Underground - 4 mb